Time;durP1;ratioP1;P1;durP2;ratioP2;P2;SDS_P1;SDS_P2;PMS_P1;PMS_P2;Temp;Humidity;BMP_temperature;BMP_pressure;BME280_temperature;BME280_humidity;BME280_pressure;Samples;Min_cycle;Max_cycle;Signal;HPM_P1;HPM_P2
2022/02/26 00:02:38;;;;;;;4.53;0.63;;;;;;;2.39;100.00;102598.16;6149976;28;20058;-85
2022/02/26 00:05:40;;;;;;;9.43;0.98;;;;;;;2.42;100.00;102599.94;6149853;28;20047;-84
2022/02/26 00:08:41;;;;;;;1.33;0.52;;;;;;;2.43;100.00;102606.84;6147085;28;20058;-85
2022/02/26 00:11:43;;;;;;;2.10;0.65;;;;;;;2.51;100.00;102606.06;6148725;28;20055;-85
2022/02/26 00:14:44;;;;;;;1.20;0.60;;;;;;;2.47;100.00;102606.91;6107331;29;20727;-86
2022/02/26 00:17:47;;;;;;;2.95;0.93;;;;;;;2.44;100.00;102608.59;6104642;29;20067;-84
2022/02/26 00:20:48;;;;;;;6.63;1.92;;;;;;;2.44;100.00;102616.38;6125754;29;20056;-85
2022/02/26 00:23:49;;;;;;;6.85;1.20;;;;;;;2.51;100.00;102618.19;6120828;28;20076;-84
2022/02/26 00:26:51;;;;;;;2.13;0.55;;;;;;;2.51;100.00;102618.19;6126184;29;20055;-85
2022/02/26 00:29:52;;;;;;;2.97;1.05;;;;;;;2.61;100.00;102613.94;6110550;29;20062;-84
2022/02/26 00:32:55;;;;;;;4.68;1.05;;;;;;;2.57;100.00;102617.38;6111631;29;20462;-85
2022/02/26 00:35:59;;;;;;;2.70;0.98;;;;;;;2.53;100.00;102630.31;6124379;29;20059;-83
2022/02/26 00:39:00;;;;;;;6.88;1.02;;;;;;;2.56;100.00;102631.22;6125807;28;20545;-84
2022/02/26 00:42:01;;;;;;;5.95;0.77;;;;;;;2.53;100.00;102625.13;6124912;29;20186;-84
2022/02/26 00:45:08;;;;;;;6.30;1.95;;;;;;;2.53;100.00;102635.50;6119085;28;20048;-85
2022/02/26 00:48:11;;;;;;;1.98;0.98;;;;;;;2.51;100.00;102637.22;6124296;29;20488;-82
2022/02/26 00:51:11;;;;;;;9.25;1.30;;;;;;;2.49;100.00;102628.53;6123605;29;20059;-84
2022/02/26 00:54:13;;;;;;;2.83;0.70;;;;;;;2.52;100.00;102631.16;6114626;29;20607;-85
2022/02/26 00:57:15;;;;;;;6.90;1.38;;;;;;;2.42;100.00;102638.84;6104321;28;20051;-84
2022/02/26 01:00:17;;;;;;;3.92;1.00;;;;;;;2.38;100.00;102640.53;6100818;29;20059;-87
2022/02/26 01:03:20;;;;;;;1.75;0.90;;;;;;;2.26;100.00;102653.34;6116951;29;20061;-84
2022/02/26 01:06:46;;;;;;;1.55;0.68;;;;;;;2.26;100.00;102646.44;6121877;28;20048;-83
2022/02/26 01:09:47;;;;;;;3.03;0.90;;;;;;;2.24;100.00;102652.47;6123793;29;20056;-84
2022/02/26 01:12:49;;;;;;;2.60;0.88;;;;;;;2.17;100.00;102650.66;6122820;29;20059;-84
2022/02/26 01:16:14;;;;;;;3.83;0.93;;;;;;;2.18;100.00;102654.97;6118419;28;20048;-84
2022/02/26 01:19:18;;;;;;;3.13;0.70;;;;;;;2.11;100.00;102659.22;6100687;29;20052;-84
2022/02/26 01:22:19;;;;;;;5.43;1.02;;;;;;;2.03;100.00;102656.53;6114646;29;20059;-83
2022/02/26 01:25:20;;;;;;;3.90;1.13;;;;;;;1.99;100.00;102661.66;6127506;29;20062;-84
2022/02/26 01:28:22;;;;;;;3.05;0.63;;;;;;;1.94;100.00;102668.50;6127473;29;20051;-84
2022/02/26 01:31:23;;;;;;;0.68;0.60;;;;;;;1.98;100.00;102667.72;6126686;29;20051;-84
2022/02/26 01:34:26;;;;;;;2.47;0.70;;;;;;;1.94;100.00;102674.56;6127203;28;20152;-83
2022/02/26 01:37:28;;;;;;;8.35;0.88;;;;;;;2.00;100.00;102686.75;6127369;29;20051;-83
2022/02/26 01:40:29;;;;;;;2.17;0.52;;;;;;;1.96;100.00;102688.44;6127250;28;20052;-84
2022/02/26 01:43:32;;;;;;;0.95;0.75;;;;;;;1.99;100.00;102685.00;6127815;28;20060;-82
2022/02/26 01:46:34;;;;;;;10.20;0.95;;;;;;;2.00;100.00;102685.03;6127142;29;20056;-83
2022/02/26 01:49:37;;;;;;;2.65;1.17;;;;;;;2.02;100.00;102690.25;6127392;29;20051;-84
2022/02/26 01:52:52;;;;;;;7.13;0.68;;;;;;;2.00;100.00;102692.81;6126665;28;20058;-83
2022/02/26 01:55:54;;;;;;;5.28;1.48;;;;;;;2.11;100.00;102702.47;6127113;28;20059;-83
2022/02/26 01:58:55;;;;;;;9.93;2.47;;;;;;;2.12;100.00;102711.97;6139678;29;20047;-83
2022/02/26 02:01:56;;;;;;;4.13;1.27;;;;;;;2.16;100.00;102713.75;6150094;28;20051;-83
2022/02/26 02:04:59;;;;;;;6.80;1.13;;;;;;;2.18;100.00;102723.31;6150849;28;20051;-83
2022/02/26 02:08:00;;;;;;;7.35;0.90;;;;;;;2.28;100.00;102713.91;6130791;28;20495;-82
2022/02/26 02:11:02;;;;;;;5.88;0.40;;;;;;;2.24;100.00;102730.28;6114022;29;20056;-82
2022/02/26 02:14:05;;;;;;;4.53;0.85;;;;;;;2.21;100.00;102730.25;6125136;29;20063;-82
2022/02/26 02:17:06;;;;;;;6.00;1.02;;;;;;;2.14;100.00;102723.25;6103345;29;20048;-84
2022/02/26 02:20:11;;;;;;;4.78;2.78;;;;;;;2.12;100.00;102732.72;6103155;29;20048;-83
2022/02/26 02:23:14;;;;;;;3.70;0.70;;;;;;;2.16;100.00;102730.19;6102756;29;20052;-82
2022/02/26 02:26:17;;;;;;;6.90;0.95;;;;;;;2.19;100.00;102734.56;6102890;28;20052;-83
2022/02/26 02:29:18;;;;;;;1.27;0.70;;;;;;;2.19;100.00;102739.75;6103240;29;20052;-83
2022/02/26 02:32:19;;;;;;;4.20;1.30;;;;;;;2.18;100.00;102737.97;6102447;29;20068;-84
2022/02/26 02:35:35;;;;;;;2.60;0.70;;;;;;;2.17;100.00;102739.69;6101951;29;20052;-82
2022/02/26 02:39:15;;;;;;;4.22;1.58;;;;;;;2.08;100.00;102738.72;6116166;29;20047;-83
2022/02/26 02:42:28;;;;;;;2.03;0.82;;;;;;;2.05;100.00;102741.28;6102815;29;20067;-83
2022/02/26 02:45:29;;;;;;;3.65;0.52;;;;;;;2.01;100.00;102750.72;6103023;28;20514;-83
2022/02/26 02:48:31;;;;;;;4.25;0.98;;;;;;;1.93;100.00;102753.19;6102639;29;20484;-83
2022/02/26 02:51:33;;;;;;;4.53;0.63;;;;;;;1.87;100.00;102749.66;6102231;28;20089;-83
2022/02/26 02:54:35;;;;;;;7.65;1.33;;;;;;;1.85;100.00;102761.72;6102334;29;20447;-84
2022/02/26 02:57:37;;;;;;;4.45;0.75;;;;;;;1.74;100.00;102767.59;6113166;29;20052;-84
2022/02/26 03:00:38;;;;;;;1.33;1.10;;;;;;;1.69;100.00;102777.03;6102137;29;20072;-84
2022/02/26 03:03:51;;;;;;;4.68;2.00;;;;;;;1.70;100.00;102781.38;6102510;29;20432;-83
2022/02/26 03:06:52;;;;;;;5.90;1.35;;;;;;;1.70;100.00;102783.97;6102376;29;20063;-83
2022/02/26 03:09:55;;;;;;;6.93;1.52;;;;;;;1.74;100.00;102790.94;6101869;29;20052;-83
2022/02/26 03:12:56;;;;;;;6.00;1.15;;;;;;;1.72;100.00;102792.63;6101749;29;20062;-83
2022/02/26 03:16:06;;;;;;;2.35;1.13;;;;;;;1.70;100.00;102796.91;6102377;29;20510;-84
2022/02/26 03:19:07;;;;;;;8.10;1.08;;;;;;;1.66;100.00;102791.66;6101904;29;20060;-83
2022/02/26 03:22:09;;;;;;;1.25;0.80;;;;;;;1.67;100.00;102796.84;6101526;29;20059;-84
2022/02/26 03:25:12;;;;;;;3.30;0.85;;;;;;;1.61;100.00;102791.59;6102115;29;20059;-82
2022/02/26 03:28:14;;;;;;;15.05;1.30;;;;;;;1.53;100.00;102791.44;6101635;29;20056;-84
2022/02/26 03:31:15;;;;;;;9.10;1.65;;;;;;;1.51;100.00;102798.34;6101241;29;20048;-82
2022/02/26 03:34:17;;;;;;;0.93;0.45;;;;;;;1.50;100.00;102801.78;6101917;29;20059;-83
2022/02/26 03:37:18;;;;;;;3.08;1.00;;;;;;;1.50;100.00;102808.69;6101687;29;20087;-83
2022/02/26 03:40:21;;;;;;;4.50;1.20;;;;;;;1.49;100.00;102818.13;6101307;29;20067;-83
2022/02/26 03:43:22;;;;;;;2.03;1.08;;;;;;;1.52;100.00;102819.94;6101279;29;20416;-84
2022/02/26 03:46:24;;;;;;;1.55;1.00;;;;;;;1.54;100.00;102833.75;6109293;29;20055;-84
2022/02/26 03:49:26;;;;;;;5.32;0.77;;;;;;;1.49;100.00;102823.31;6125593;29;20056;-83
2022/02/26 03:52:27;;;;;;;4.25;1.08;;;;;;;1.59;100.00;102826.06;6148076;28;20059;-83
2022/02/26 03:55:30;;;;;;;8.57;1.23;;;;;;;1.47;100.00;102829.34;6148779;28;20058;-83
2022/02/26 03:58:31;;;;;;;0.60;0.47;;;;;;;1.48;100.00;102836.25;6148420;28;20056;-83
2022/02/26 04:01:33;;;;;;;5.07;0.85;;;;;;;1.46;100.00;102838.84;6147965;28;20051;-84
2022/02/26 04:04:35;;;;;;;10.00;1.85;;;;;;;1.42;100.00;102830.97;6148312;28;20510;-83
2022/02/26 04:07:40;;;;;;;15.43;1.52;;;;;;;1.42;100.00;102838.75;6148213;28;20614;-83
2022/02/26 04:10:43;;;;;;;2.45;0.63;;;;;;;1.42;100.00;102844.81;6147907;28;20512;-84
2022/02/26 04:13:44;;;;;;;3.10;1.33;;;;;;;1.46;100.00;102850.91;6148003;28;20055;-84
2022/02/26 04:16:46;;;;;;;3.78;0.57;;;;;;;1.61;100.00;102838.22;6148009;28;20055;-82
2022/02/26 04:19:47;;;;;;;2.90;0.77;;;;;;;1.59;100.00;102842.53;6148072;28;20052;-84
2022/02/26 04:22:49;;;;;;;4.10;2.22;;;;;;;1.62;100.00;102852.06;6147752;28;20185;-83
2022/02/26 04:25:52;;;;;;;1.42;0.63;;;;;;;1.60;100.00;102852.03;6148151;28;20055;-83
2022/02/26 04:28:55;;;;;;;0.65;0.63;;;;;;;1.55;100.00;102860.56;6148067;28;20058;-83
2022/02/26 04:31:56;;;;;;;4.82;1.17;;;;;;;1.48;100.00;102867.34;6147580;28;20082;-82
2022/02/26 04:34:57;;;;;;;1.88;0.80;;;;;;;1.44;100.00;102861.22;6147594;29;20047;-84
2022/02/26 04:37:59;;;;;;;1.98;0.82;;;;;;;1.44;100.00;102870.72;6147969;28;20047;-83
2022/02/26 04:41:02;;;;;;;2.10;0.90;;;;;;;1.39;100.00;102880.13;6147432;28;20054;-84
2022/02/26 04:44:04;;;;;;;8.65;1.55;;;;;;;1.29;100.00;102876.50;6148061;28;20051;-83
2022/02/26 04:47:06;;;;;;;1.25;0.80;;;;;;;1.29;100.00;102873.03;6148059;28;20051;-83
2022/02/26 04:50:09;;;;;;;1.40;0.45;;;;;;;1.26;100.00;102882.47;6147614;28;20055;-83
2022/02/26 04:53:10;;;;;;;5.93;0.90;;;;;;;1.23;100.00;102878.97;6147363;28;20515;-84
2022/02/26 04:56:13;;;;;;;1.48;0.75;;;;;;;1.19;100.00;102884.94;6147563;28;20062;-83
2022/02/26 04:59:15;;;;;;;1.90;0.88;;;;;;;1.17;100.00;102887.47;6146933;28;20055;-84
2022/02/26 05:02:16;;;;;;;4.00;0.57;;;;;;;1.13;100.00;102889.97;6147099;28;20054;-83
2022/02/26 05:05:18;;;;;;;1.23;0.82;;;;;;;1.14;100.00;102891.75;6147703;28;20047;-84
2022/02/26 05:08:19;;;;;;;4.40;0.73;;;;;;;1.07;100.00;102898.50;6147608;28;20074;-84
2022/02/26 05:11:22;;;;;;;4.47;0.73;;;;;;;1.03;100.00;102899.28;6171310;28;20056;-86
2022/02/26 05:14:23;;;;;;;4.30;0.60;;;;;;;0.98;100.00;102901.78;6162735;28;20052;-83
2022/02/26 05:17:24;;;;;;;5.03;1.02;;;;;;;0.97;100.00;102912.97;6123807;29;20043;-83
2022/02/26 05:20:26;;;;;;;1.80;1.15;;;;;;;0.93;100.00;102913.75;6168083;28;20481;-83
2022/02/26 05:23:28;;;;;;;2.15;0.68;;;;;;;0.97;100.00;102912.09;6247628;28;20059;-82
2022/02/26 05:26:30;;;;;;;5.30;1.67;;;;;;;0.91;100.00;102918.03;6247302;28;20444;-83
2022/02/26 05:29:32;;;;;;;1.95;0.73;;;;;;;0.87;100.00;102929.16;6247777;28;20053;-83
2022/02/26 05:32:33;;;;;;;1.85;0.55;;;;;;;0.89;100.00;102929.19;6246901;28;20045;-83
2022/02/26 05:35:34;;;;;;;4.50;0.80;;;;;;;0.83;100.00;102929.06;6247519;28;20136;-83
2022/02/26 05:38:35;;;;;;;7.13;1.10;;;;;;;0.83;100.00;102924.75;6154265;28;20054;-83
2022/02/26 05:41:39;;;;;;;2.65;0.60;;;;;;;0.75;100.00;102940.09;6122887;29;20063;-83
2022/02/26 05:44:40;;;;;;;4.75;1.38;;;;;;;0.75;100.00;102954.75;6123239;29;20135;-82
2022/02/26 05:47:41;;;;;;;1.88;0.55;;;;;;;0.73;100.00;102961.63;6163999;28;20058;-83
2022/02/26 05:50:43;;;;;;;2.33;0.75;;;;;;;0.74;100.00;102961.66;6122555;29;20063;-83
2022/02/26 05:53:56;;;;;;;1.10;0.90;;;;;;;0.67;100.00;102972.69;6123066;29;20423;-82
2022/02/26 05:56:58;;;;;;;6.35;1.67;;;;;;;0.67;100.00;102982.16;6122930;29;20052;-83
2022/02/26 06:00:00;;;;;;;0.57;0.55;;;;;;;0.64;100.00;102970.03;6122904;29;20060;-83
2022/02/26 06:03:01;;;;;;;3.75;2.28;;;;;;;0.61;100.00;102974.25;6122522;29;20055;-83
2022/02/26 06:06:03;;;;;;;7.10;1.45;;;;;;;0.62;100.00;102968.25;6122493;29;20396;-83
2022/02/26 06:09:04;;;;;;;1.27;0.85;;;;;;;0.59;100.00;102965.56;6124394;29;20047;-82
2022/02/26 06:12:08;;;;;;;6.80;1.08;;;;;;;0.59;100.00;102970.75;6126160;29;21110;-83
2022/02/26 06:15:10;;;;;;;5.30;0.80;;;;;;;0.61;100.00;102987.19;6126732;29;20055;-83
2022/02/26 06:18:12;;;;;;;0.75;0.47;;;;;;;0.61;100.00;103007.91;6126737;29;20055;-83
2022/02/26 06:21:13;;;;;;;11.32;1.67;;;;;;;0.61;100.00;103000.13;6120988;29;20054;-82
2022/02/26 06:24:14;;;;;;;2.00;0.90;;;;;;;0.59;100.00;103009.56;6150750;28;20055;-83
2022/02/26 06:27:17;;;;;;;1.65;0.80;;;;;;;0.58;100.00;103007.81;6150590;28;20387;-82
2022/02/26 06:30:22;;;;;;;0.98;0.43;;;;;;;0.53;100.00;103002.53;6149873;28;20055;-83
2022/02/26 06:33:26;;;;;;;0.82;0.75;;;;;;;0.56;100.00;103010.38;6142101;28;20109;-83
2022/02/26 06:36:39;;;;;;;3.88;0.93;;;;;;;0.51;100.00;103017.16;6126948;29;20055;-83
2022/02/26 06:39:40;;;;;;;9.10;0.70;;;;;;;0.58;100.00;103025.91;6126103;29;20048;-83
2022/02/26 06:42:45;;;;;;;1.38;0.52;;;;;;;0.52;100.00;103030.94;6125839;29;20051;-83
2022/02/26 06:45:47;;;;;;;12.50;1.80;;;;;;;0.53;100.00;103023.22;6126373;29;20052;-84
2022/02/26 06:48:49;;;;;;;6.53;1.80;;;;;;;0.56;100.00;103027.59;6125737;29;20141;-81
2022/02/26 06:51:50;;;;;;;6.18;1.85;;;;;;;0.61;100.00;103038.94;6124650;29;20082;-81
2022/02/26 06:54:52;;;;;;;4.05;0.93;;;;;;;0.67;100.00;103049.44;6126082;29;20055;-81
2022/02/26 06:57:54;;;;;;;2.08;0.50;;;;;;;0.69;100.00;103056.41;6129437;28;20039;-81
2022/02/26 07:00:56;;;;;;;3.35;0.60;;;;;;;0.70;100.00;103054.69;6112752;28;20048;-81
2022/02/26 07:03:57;;;;;;;3.90;1.17;;;;;;;0.72;100.00;103069.41;6104473;28;20176;-81
2022/02/26 07:06:59;;;;;;;0.82;0.40;;;;;;;0.72;100.00;103066.81;6101470;28;20422;-81
2022/02/26 07:10:00;;;;;;;7.80;1.40;;;;;;;0.74;100.00;103067.75;6101287;28;20056;-80
2022/02/26 07:13:03;;;;;;;2.65;0.90;;;;;;;0.76;100.00;103088.47;6100680;28;20048;-80
2022/02/26 07:16:05;;;;;;;3.05;1.25;;;;;;;0.74;100.00;103080.69;6101189;28;20508;-80
2022/02/26 07:19:07;;;;;;;2.70;1.27;;;;;;;0.79;100.00;103096.31;6100973;28;20507;-80
2022/02/26 07:22:09;;;;;;;2.40;0.98;;;;;;;0.80;100.00;103097.19;6099477;28;20059;-80
2022/02/26 07:25:10;;;;;;;1.15;0.70;;;;;;;0.82;100.00;103105.84;6100906;28;20056;-80
2022/02/26 07:28:13;;;;;;;3.13;0.80;;;;;;;0.85;100.00;103111.13;6101152;28;20059;-80
2022/02/26 07:31:15;;;;;;;3.30;1.13;;;;;;;0.89;100.00;103103.47;6104318;28;20048;-80
2022/02/26 07:34:16;;;;;;;1.98;0.68;;;;;;;0.93;100.00;103115.66;6100914;28;20055;-80
2022/02/26 07:37:17;;;;;;;10.65;1.00;;;;;;;0.97;100.00;103112.31;6107980;28;20048;-81
2022/02/26 07:40:19;;;;;;;4.15;0.57;;;;;;;1.01;100.00;103114.13;6109387;29;20127;-80
2022/02/26 07:43:21;;;;;;;1.02;0.68;;;;;;;1.07;100.00;103117.72;6110470;29;20052;-80
2022/02/26 07:46:23;;;;;;;3.50;0.65;;;;;;;1.09;100.00;103121.19;6111875;29;20044;-80
2022/02/26 07:49:25;;;;;;;4.75;1.00;;;;;;;1.14;100.00;103129.97;6121420;28;20055;-80
2022/02/26 07:52:30;;;;;;;3.88;0.73;;;;;;;1.20;100.00;103137.88;6121493;28;20515;-80
2022/02/26 07:55:34;;;;;;;3.30;0.77;;;;;;;1.24;100.00;103135.41;6206768;28;20048;-81
2022/02/26 07:58:37;;;;;;;1.30;0.75;;;;;;;1.27;100.00;103147.53;6139941;28;20047;-81
2022/02/26 08:01:38;;;;;;;9.15;0.98;;;;;;;1.32;100.00;103148.53;6147403;28;20062;-81
2022/02/26 08:04:39;;;;;;;1.33;0.80;;;;;;;1.43;100.00;103153.97;6147726;28;20059;-80
2022/02/26 08:07:41;;;;;;;2.22;0.70;;;;;;;1.50;100.00;103141.19;6146501;28;20055;-80
2022/02/26 08:10:42;;;;;;;2.05;0.95;;;;;;;1.60;100.00;103154.34;6111735;28;20090;-81
2022/02/26 08:13:45;;;;;;;2.00;0.77;;;;;;;1.68;100.00;103151.09;6112883;29;20054;-80
2022/02/26 08:16:46;;;;;;;8.07;1.45;;;;;;;1.76;100.00;103159.03;6113371;28;20078;-80
2022/02/26 08:19:47;;;;;;;3.33;0.73;;;;;;;1.83;100.00;103157.44;6118737;28;20046;-80
2022/02/26 08:22:49;;;;;;;2.33;0.73;;;;;;;1.96;100.00;103169.84;6122221;29;20506;-80
2022/02/26 08:25:50;;;;;;;11.55;0.70;;;;;;;2.05;100.00;103167.44;6124534;29;20050;-79
2022/02/26 08:28:53;;;;;;;4.47;0.70;;;;;;;2.09;100.00;103168.34;6139436;28;20059;-80
2022/02/26 08:31:54;;;;;;;5.85;1.38;;;;;;;2.14;100.00;103171.94;6116349;28;20051;-79
2022/02/26 08:34:55;;;;;;;6.30;1.95;;;;;;;2.25;100.00;103179.09;6130699;28;20051;-80
2022/02/26 08:37:57;;;;;;;3.10;1.05;;;;;;;2.34;100.00;103181.00;6161433;28;20051;-80
2022/02/26 08:40:58;;;;;;;4.68;0.82;;;;;;;2.48;100.00;103187.31;6158705;28;20055;-80
2022/02/26 08:44:01;;;;;;;2.85;0.65;;;;;;;2.57;100.00;103189.22;6126660;28;20423;-80
2022/02/26 08:47:03;;;;;;;10.30;1.15;;;;;;;2.62;100.00;103191.91;6111478;29;20048;-79
2022/02/26 08:50:07;;;;;;;0.60;0.60;;;;;;;2.63;100.00;103199.72;6109090;29;20059;-80
2022/02/26 08:53:08;;;;;;;10.35;1.40;;;;;;;2.69;100.00;103197.25;6109669;29;20519;-80
2022/02/26 08:56:10;;;;;;;2.00;0.95;;;;;;;2.77;100.00;103198.28;6110069;28;20135;-81
2022/02/26 08:59:13;;;;;;;3.03;0.95;;;;;;;2.89;100.00;103202.81;6120160;28;20051;-80
2022/02/26 09:02:14;;;;;;;7.60;0.80;;;;;;;3.03;100.00;103208.25;6129360;29;20048;-80
2022/02/26 09:05:17;;;;;;;8.73;1.30;;;;;;;3.14;100.00;103204.13;6137063;29;20050;-82
2022/02/26 09:08:19;;;;;;;11.88;1.45;;;;;;;3.19;100.00;103204.19;6138796;28;20161;-81
2022/02/26 09:11:20;;;;;;;12.95;0.98;;;;;;;3.28;100.00;103205.22;6144055;28;20058;-82
2022/02/26 09:14:23;;;;;;;11.25;2.05;;;;;;;3.48;100.00;103213.31;6122073;29;20049;-78
2022/02/26 09:17:25;;;;;;;10.55;1.92;;;;;;;3.65;100.00;103223.13;6113837;28;20055;-78
2022/02/26 09:20:26;;;;;;;2.65;0.73;;;;;;;3.87;100.00;103217.38;6158487;28;20190;-81
2022/02/26 09:23:28;;;;;;;5.22;1.38;;;;;;;4.05;100.00;103228.06;6099252;29;20068;-82
2022/02/26 09:26:30;;;;;;;1.90;0.93;;;;;;;4.10;100.00;103232.44;6099411;29;20059;-80
2022/02/26 09:29:32;;;;;;;6.13;1.67;;;;;;;4.17;100.00;103234.25;6109253;29;20055;-81
2022/02/26 09:32:34;;;;;;;3.63;0.93;;;;;;;4.24;100.00;103236.09;6130518;28;20074;-80
2022/02/26 09:35:35;;;;;;;6.95;1.13;;;;;;;4.37;100.00;103231.94;6140515;29;20047;-83
2022/02/26 09:38:39;;;;;;;7.22;1.20;;;;;;;4.54;100.00;103230.38;6147065;28;20044;-82
2022/02/26 09:41:41;;;;;;;3.72;0.70;;;;;;;4.68;100.00;103235.75;6129748;28;20091;-79
2022/02/26 09:44:44;;;;;;;6.57;1.25;;;;;;;4.81;100.00;103235.94;6226012;28;20049;-84
2022/02/26 09:47:45;;;;;;;7.72;0.57;;;;;;;4.95;100.00;103243.88;6154451;28;20491;-81
2022/02/26 09:50:49;;;;;;;6.28;0.98;;;;;;;4.91;100.00;103242.09;6128888;28;20047;-83
2022/02/26 09:53:51;;;;;;;13.98;1.20;;;;;;;4.78;100.00;103245.44;6138952;28;20063;-82
2022/02/26 09:56:53;;;;;;;4.70;1.23;;;;;;;4.71;100.00;103243.59;6139977;28;20106;-83
2022/02/26 09:59:56;;;;;;;11.48;2.55;;;;;;;4.84;100.00;103248.97;6151973;28;20050;-83
2022/02/26 10:02:57;;;;;;;7.35;2.55;;;;;;;4.90;100.00;103250.75;6145623;28;20055;-83
2022/02/26 10:06:09;;;;;;;5.25;1.38;;;;;;;4.91;100.00;103252.53;6151012;28;20054;-83
2022/02/26 10:09:14;;;;;;;2.58;0.82;;;;;;;4.93;100.00;103250.78;6174885;28;20139;-83
2022/02/26 10:12:18;;;;;;;9.23;0.93;;;;;;;5.12;100.00;103250.97;6166172;28;20500;-83
2022/02/26 10:15:24;;;;;;;8.60;1.30;;;;;;;5.16;100.00;103257.97;6167990;28;20052;-83
2022/02/26 10:18:26;;;;;;;10.43;1.30;;;;;;;5.22;100.00;103256.31;6113724;28;20044;-83
2022/02/26 10:21:31;;;;;;;4.22;0.85;;;;;;;5.41;100.00;103264.31;6121030;29;20048;-82
2022/02/26 10:24:35;;;;;;;7.70;0.70;;;;;;;5.44;100.00;103253.88;6117531;28;20060;-82
2022/02/26 10:27:42;;;;;;;13.05;1.05;;;;;;;5.52;100.00;103255.69;6117152;29;20067;-82
2022/02/26 10:30:45;;;;;;;3.45;0.93;;;;;;;5.48;100.00;103260.88;6115957;28;20419;-83
2022/02/26 10:33:47;;;;;;;3.40;0.88;;;;;;;5.31;100.00;103261.63;6112388;29;20044;-84
2022/02/26 10:37:00;;;;;;;6.82;0.85;;;;;;;5.21;100.00;103262.38;6123442;28;20435;-81
2022/02/26 10:40:02;;;;;;;14.98;1.08;;;;;;;5.31;100.00;103258.09;6125173;29;20095;-85
2022/02/26 10:43:03;;;;;;;5.45;0.80;;;;;;;5.47;100.00;103264.34;6136735;28;20492;-85
2022/02/26 10:46:20;;;;;;;0.60;0.40;;;;;;;5.73;100.00;103259.34;6197985;28;20057;-84
2022/02/26 10:49:21;;;;;;;10.38;0.77;;;;;;;5.83;100.00;103262.00;6250724;28;20052;-85
2022/02/26 10:52:22;;;;;;;10.27;0.80;;;;;;;5.66;100.00;103262.75;6249844;28;20056;-87
2022/02/26 10:55:44;;;;;;;8.63;0.98;;;;;;;5.60;100.00;103260.97;6248939;28;20057;-77
2022/02/26 10:58:46;;;;;;;6.70;1.00;;;;;;;5.76;100.00;103267.16;6214581;28;20041;-75
2022/02/26 11:02:00;;;;;;;9.85;1.13;;;;;;;5.79;100.00;103268.06;6188213;28;20531;-81
2022/02/26 11:05:01;;;;;;;9.75;1.38;;;;;;;5.81;100.00;103266.38;6250612;28;20056;-87
2022/02/26 11:08:03;;;;;;;10.60;1.20;;;;;;;5.91;100.00;103259.47;6250388;28;20053;-87
2022/02/26 11:11:15;;;;;;;1.48;0.75;;;;;;;5.98;100.00;103274.31;6190968;28;20055;-84
2022/02/26 11:14:19;;;;;;;8.88;1.25;;;;;;;5.85;100.00;103267.22;6132683;29;20055;-86
2022/02/26 11:17:24;;;;;;;2.55;1.00;;;;;;;5.74;100.00;103267.16;6141250;28;20575;-86
2022/02/26 11:20:27;;;;;;;6.63;1.40;;;;;;;6.01;100.00;103265.66;6101586;29;20048;-86
2022/02/26 11:23:29;;;;;;;4.00;1.00;;;;;;;6.19;100.00;103263.13;6111739;29;20079;-87
2022/02/26 11:26:32;;;;;;;7.82;1.10;;;;;;;6.42;100.00;103263.25;6125883;29;20060;-87
2022/02/26 11:29:33;;;;;;;6.72;1.77;;;;;;;6.54;98.48;103265.03;6125252;29;20483;-87
2022/02/26 11:32:42;;;;;;;7.13;1.30;;;;;;;6.43;100.00;103262.38;6124084;29;20055;-79
2022/02/26 11:35:51;;;;;;;10.80;0.80;;;;;;;6.81;100.00;103262.53;6126331;29;20052;-83
2022/02/26 11:38:57;;;;;;;1.52;0.70;;;;;;;7.34;95.98;103253.88;6132816;29;20043;-83
2022/02/26 11:42:24;;;;;;;3.00;0.73;;;;;;;7.37;91.14;103256.50;6137665;28;20514;-83
2022/02/26 11:45:27;;;;;;;11.15;0.80;;;;;;;7.23;92.15;103263.47;6100594;29;20056;-83
2022/02/26 11:48:35;;;;;;;9.77;0.93;;;;;;;7.31;90.04;103256.53;6140842;29;20047;-81
2022/02/26 11:51:37;;;;;;;4.10;1.05;;;;;;;7.60;92.43;103258.25;6140483;28;20058;-76
2022/02/26 11:54:42;;;;;;;2.47;1.10;;;;;;;7.85;84.03;103257.34;6133462;28;20431;-77
2022/02/26 11:57:45;;;;;;;4.97;0.82;;;;;;;7.48;85.84;103246.03;6141996;28;20047;-76
2022/02/26 12:00:48;;;;;;;5.57;1.10;;;;;;;7.27;89.09;103249.53;6112873;29;20055;-77
2022/02/26 12:03:51;;;;;;;5.95;1.23;;;;;;;7.77;90.32;103250.41;6123215;28;20043;-81
2022/02/26 12:06:56;;;;;;;6.07;1.00;;;;;;;8.11;85.03;103248.56;6135928;28;20051;-81
2022/02/26 12:09:58;;;;;;;3.95;0.98;;;;;;;8.04;81.12;103246.81;6144330;28;20577;-81
2022/02/26 12:12:59;;;;;;;4.72;0.90;;;;;;;8.34;89.90;103238.88;6143718;28;20442;-81
2022/02/26 12:16:26;;;;;;;3.30;1.13;;;;;;;8.43;77.98;103238.00;6118220;29;20435;-84
2022/02/26 12:19:29;;;;;;;3.45;1.00;;;;;;;8.53;79.36;103244.06;6100128;29;20047;-82
2022/02/26 12:22:34;;;;;;;6.57;1.00;;;;;;;8.04;77.33;103252.06;6126718;28;20055;-82
2022/02/26 12:25:39;;;;;;;3.80;0.98;;;;;;;7.86;81.65;103246.00;6117264;29;20423;-83
2022/02/26 12:28:40;;;;;;;7.82;0.73;;;;;;;8.10;80.93;103241.59;6116430;29;20052;-83
2022/02/26 12:31:53;;;;;;;3.42;1.00;;;;;;;7.77;81.44;103248.66;6121692;29;20048;-83
2022/02/26 12:35:03;;;;;;;6.90;0.60;;;;;;;7.35;84.16;103252.13;6119657;28;20040;-82
2022/02/26 12:38:20;;;;;;;5.57;0.85;;;;;;;8.11;85.67;103245.94;6127739;29;20055;-82
2022/02/26 12:41:31;;;;;;;5.93;1.20;;;;;;;8.63;79.96;103230.94;6122542;29;20056;-84
2022/02/26 12:44:35;;;;;;;4.50;1.20;;;;;;;9.13;77.67;103234.97;6123654;28;20052;-84
2022/02/26 12:47:38;;;;;;;6.07;0.90;;;;;;;9.09;81.20;103230.63;6129647;29;20047;-76
2022/02/26 12:50:41;;;;;;;3.92;1.20;;;;;;;9.35;79.56;103230.41;6137902;28;20047;-74
2022/02/26 12:53:43;;;;;;;6.78;1.63;;;;;;;9.46;77.18;103230.34;6132200;28;20048;-74
2022/02/26 12:56:44;;;;;;;2.83;0.85;;;;;;;9.46;73.46;103226.84;6119183;29;20055;-78
2022/02/26 12:59:46;;;;;;;1.83;0.82;;;;;;;9.37;69.52;103225.16;6121230;28;20043;-79
2022/02/26 13:02:53;;;;;;;4.60;0.98;;;;;;;9.53;73.57;103229.38;6179050;28;20122;-76
2022/02/26 13:06:04;;;;;;;3.40;1.33;;;;;;;9.06;73.01;103217.53;6186030;28;20519;-78
2022/02/26 13:09:07;;;;;;;6.65;1.13;;;;;;;8.54;79.98;103211.72;6164359;28;20047;-82
2022/02/26 13:12:09;;;;;;;4.00;1.42;;;;;;;9.02;74.96;103217.56;6168175;28;20191;-83
2022/02/26 13:15:12;;;;;;;1.55;0.68;;;;;;;9.09;74.22;103208.78;6164182;28;20052;-81
2022/02/26 13:18:14;;;;;;;3.42;1.23;;;;;;;9.57;71.95;103211.84;6242915;28;20060;-82
2022/02/26 13:21:17;;;;;;;6.43;1.10;;;;;;;9.71;72.33;103202.09;6252692;28;20041;-82
2022/02/26 13:24:19;;;;;;;11.48;2.17;;;;;;;9.86;69.54;103195.81;6253785;28;20058;-82
2022/02/26 13:27:24;;;;;;;7.50;0.95;;;;;;;10.03;66.98;103192.97;6254787;28;20077;-82
2022/02/26 13:30:27;;;;;;;6.32;1.92;;;;;;;9.97;67.29;103191.31;6254639;28;20481;-82
2022/02/26 13:33:29;;;;;;;1.65;0.65;;;;;;;9.90;63.89;103192.25;6253507;28;20053;-82
2022/02/26 13:36:31;;;;;;;3.80;1.10;;;;;;;9.79;66.61;103181.00;6253389;28;20046;-82
2022/02/26 13:39:33;;;;;;;4.68;1.35;;;;;;;9.76;69.60;103178.41;6253305;28;20048;-82
2022/02/26 13:42:36;;;;;;;8.63;1.98;;;;;;;9.89;73.35;103172.13;6252831;28;20057;-82
2022/02/26 13:45:40;;;;;;;3.97;0.90;;;;;;;10.21;65.16;103177.00;6253536;28;20049;-82
2022/02/26 13:48:43;;;;;;;1.25;0.60;;;;;;;10.19;67.01;103168.28;6254214;28;20580;-82
2022/02/26 13:51:47;;;;;;;4.25;1.00;;;;;;;10.31;66.59;103167.25;6253243;28;20056;-82
2022/02/26 13:54:51;;;;;;;2.53;0.98;;;;;;;10.34;68.56;103167.22;6186085;28;20039;-79
2022/02/26 13:57:52;;;;;;;5.28;0.98;;;;;;;10.44;67.29;103166.19;6123380;28;20048;-84
2022/02/26 14:01:07;;;;;;;6.30;1.02;;;;;;;10.43;66.44;103160.97;6134121;29;20047;-82
2022/02/26 14:04:08;;;;;;;1.60;0.77;;;;;;;10.30;66.36;103161.13;6128838;28;20044;-81
2022/02/26 14:07:11;;;;;;;1.20;0.50;;;;;;;10.12;62.36;103158.72;6140412;29;20043;-81
2022/02/26 14:10:15;;;;;;;2.42;0.85;;;;;;;10.21;60.86;103152.47;6144455;28;20048;-81
2022/02/26 14:13:18;;;;;;;5.28;0.73;;;;;;;10.40;60.99;103157.50;6197505;28;20060;-81
2022/02/26 14:16:23;;;;;;;2.90;0.60;;;;;;;10.39;60.22;103150.50;6135987;29;20048;-80